Metar Aviation Weather Data LEMG Málaga

9°C Temp
7°C Dewpoint
87% Humidity
Temperature
13 KM/H
8 MPH
7 KTS
290°
West North
West

Wind Speed
Partly Cloudy
Conditions
Pressure 1019.92 (hPa) - 30.12 (in)
Visibility 6.2 (mi) - 10 (km)

Current Conditions
LEMG
Málaga
Metar :LEMG 180230Z 29007KT 9999 FEW020 09/07 Q1020 NOSIG
Thu 1st January 03:00 am

Málaga
  Metar Aviation API Data Provided by https://www.checkwx.com/ PHP scripts by weather34.com ©2019